createdAt,value
2022-11-09T00:01:40.467Z,99905.78
2022-11-09T00:04:07.546Z,99903.69
2022-11-09T00:06:35.115Z,99899.09
2022-11-09T00:09:07.401Z,99907.03
2022-11-09T00:11:34.442Z,99898.69
2022-11-09T00:14:00.842Z,99888.69
2022-11-09T00:16:27.358Z,99892.00
2022-11-09T00:18:53.897Z,99889.09
2022-11-09T00:21:23.261Z,99891.59
2022-11-09T00:23:50.151Z,99898.66
2022-11-09T00:26:18.419Z,99901.97
2022-11-09T00:28:44.861Z,99896.56
2022-11-09T00:31:14.210Z,99897.16
2022-11-09T00:33:40.989Z,99894.44
2022-11-09T00:36:12.779Z,99892.34
2022-11-09T00:38:40.587Z,99895.06
2022-11-09T00:41:09.518Z,99901.94
2022-11-09T00:43:36.725Z,99896.31
2022-11-09T00:46:03.538Z,99892.53
2022-11-09T00:48:30.380Z,99886.91
2022-11-09T00:50:57.850Z,99883.16
2022-11-09T00:53:24.918Z,99885.69
2022-11-09T00:56:08.888Z,99886.06
2022-11-09T00:58:37.604Z,99886.88
2022-11-09T01:01:11.401Z,99887.50
2022-11-09T01:03:38.766Z,99889.41
2022-11-09T01:06:06.093Z,99900.22
2022-11-09T01:08:33.763Z,99893.75
2022-11-09T01:11:08.889Z,99883.53
2022-11-09T01:13:36.605Z,99882.72
2022-11-09T01:16:11.922Z,99882.47
2022-11-09T01:18:39.148Z,99889.78
2022-11-09T01:21:07.108Z,99892.47
2022-11-09T01:23:34.119Z,99893.53
2022-11-09T01:26:02.961Z,99893.53
2022-11-09T01:28:29.583Z,99890.84
2022-11-09T01:31:00.686Z,99898.13
2022-11-09T01:33:27.094Z,99895.19
2022-11-09T01:35:53.541Z,99887.06
2022-11-09T01:38:20.090Z,99895.19
2022-11-09T01:40:46.498Z,99884.34
2022-11-09T01:43:19.263Z,99893.09
2022-11-09T01:45:50.424Z,99895.19
2022-11-09T01:48:23.361Z,99892.72
2022-11-09T01:50:58.710Z,99890.41
2022-11-09T01:53:30.291Z,99886.31
2022-11-09T01:56:02.132Z,99894.81
2022-11-09T01:58:37.619Z,99889.81
2022-11-09T02:01:05.644Z,99899.44
2022-11-09T02:03:42.848Z,99886.94
2022-11-09T02:06:12.143Z,99891.16
2022-11-09T02:08:39.813Z,99886.16
2022-11-09T02:11:11.472Z,99892.00
2022-11-09T02:13:41.671Z,99885.13
2022-11-09T02:16:10.558Z,99889.09
2022-11-09T02:18:50.280Z,99886.63
2022-11-09T02:21:16.816Z,99882.69
2022-11-09T02:23:43.563Z,99875.81
2022-11-09T02:26:15.714Z,99893.13
2022-11-09T02:28:42.423Z,99890.03
2022-11-09T02:31:11.969Z,99888.59
2022-11-09T02:33:53.258Z,99886.91
2022-11-09T02:36:20.136Z,99874.84
2022-11-09T02:38:46.556Z,99876.94
2022-11-09T02:41:13.339Z,99874.69
2022-11-09T02:43:40.784Z,99877.59
2022-11-09T02:46:07.193Z,99871.78
2022-11-09T02:48:33.589Z,99877.38
2022-11-09T02:51:00.057Z,99872.41
2022-11-09T02:53:26.492Z,99872.63
2022-11-09T02:55:52.892Z,99870.97
2022-11-09T02:58:19.311Z,99867.63
2022-11-09T03:00:45.941Z,99859.53
2022-11-09T03:03:12.614Z,99864.09
2022-11-09T03:05:39.067Z,99867.00
2022-11-09T03:08:05.785Z,99874.53
2022-11-09T03:10:32.174Z,99874.75
2022-11-09T03:12:58.631Z,99875.16
2022-11-09T03:15:25.215Z,99876.44
2022-11-09T03:17:51.625Z,99876.84
2022-11-09T03:20:18.142Z,99877.28
2022-11-09T03:22:44.558Z,99873.34
2022-11-09T03:25:11.025Z,99869.19
2022-11-09T03:27:37.442Z,99871.69
2022-11-09T03:30:04.257Z,99878.59
2022-11-09T03:32:30.815Z,99877.34
2022-11-09T03:34:57.262Z,99878.19
2022-11-09T03:37:23.666Z,99886.88
2022-11-09T03:39:50.225Z,99888.34
2022-11-09T03:42:16.687Z,99884.19
2022-11-09T03:44:43.070Z,99893.78
2022-11-09T03:47:09.543Z,99902.94
2022-11-09T03:49:36.009Z,99917.47
2022-11-09T03:52:02.757Z,99922.88
2022-11-09T03:54:29.166Z,99927.03
2022-11-09T03:56:55.580Z,99923.91
2022-11-09T03:59:22.026Z,99916.44
2022-11-09T04:01:48.488Z,99914.97
2022-11-09T04:04:14.949Z,99921.63
2022-11-09T04:06:41.439Z,99926.03
2022-11-09T04:09:08.016Z,99929.34
2022-11-09T04:11:34.404Z,99926.63
2022-11-09T04:14:00.950Z,99912.91
2022-11-09T04:16:27.430Z,99914.78
2022-11-09T04:18:53.892Z,99911.03
2022-11-09T04:21:23.700Z,99918.09
2022-11-09T04:23:50.751Z,99912.69
2022-11-09T04:26:17.224Z,99913.53
2022-11-09T04:28:43.696Z,99910.59
2022-11-09T04:31:10.134Z,99914.75
2022-11-09T04:33:36.566Z,99911.88
2022-11-09T04:36:04.767Z,99917.91
2022-11-09T04:38:31.486Z,99908.53
2022-11-09T04:41:01.931Z,99911.63
2022-11-09T04:43:29.220Z,99921.41
2022-11-09T04:45:55.790Z,99931.78
2022-11-09T04:48:22.270Z,99930.53
2022-11-09T04:50:48.684Z,99925.75
2022-11-09T04:53:15.714Z,99930.75
2022-11-09T04:55:42.727Z,99929.47
2022-11-09T04:58:09.936Z,99929.91
2022-11-09T05:00:36.903Z,99920.53
2022-11-09T05:03:05.041Z,99916.34
2022-11-09T05:05:33.847Z,99925.91
2022-11-09T05:08:00.338Z,99924.88
2022-11-09T05:10:26.834Z,99925.47
2022-11-09T05:13:19.556Z,99942.16
2022-11-09T05:15:46.331Z,99933.78
2022-11-09T05:18:12.765Z,99935.47
2022-11-09T05:20:39.191Z,99937.13
2022-11-09T05:23:28.194Z,99937.94
2022-11-09T05:25:54.617Z,99934.22
2022-11-09T05:28:21.041Z,99930.47
2022-11-09T05:30:47.465Z,99940.47
2022-11-09T05:33:14.772Z,99944.00
2022-11-09T05:35:41.165Z,99936.94
2022-11-09T05:38:07.562Z,99931.50
2022-11-09T05:40:34.663Z,99940.88
2022-11-09T05:43:01.233Z,99945.47
2022-11-09T05:45:42.213Z,99951.91
2022-11-09T05:48:11.151Z,99951.91
2022-11-09T05:50:38.527Z,99953.38
2022-11-09T05:53:05.394Z,99957.94
2022-11-09T05:55:31.781Z,99954.81
2022-11-09T05:57:58.361Z,99955.44
2022-11-09T06:00:24.886Z,99949.59
2022-11-09T06:02:51.361Z,99961.03
2022-11-09T06:05:17.967Z,99943.53
2022-11-09T06:07:44.364Z,99957.09
2022-11-09T06:10:11.441Z,99956.66
2022-11-09T06:12:38.207Z,99956.44
2022-11-09T06:15:05.519Z,99948.09
2022-11-09T06:17:31.983Z,99956.22
2022-11-09T06:19:58.448Z,99962.47
2022-11-09T06:22:24.847Z,99958.91
2022-11-09T06:24:51.252Z,99961.44
2022-11-09T06:27:17.662Z,99958.72
2022-11-09T06:29:44.042Z,99954.34
2022-11-09T06:32:10.493Z,99957.88
2022-11-09T06:34:36.869Z,99961.44
2022-11-09T06:37:03.264Z,99965.16
2022-11-09T06:39:29.676Z,99961.88
2022-11-09T06:41:56.122Z,99963.31
2022-11-09T06:44:22.537Z,99960.41
2022-11-09T06:46:48.963Z,99970.00
2022-11-09T06:49:15.360Z,99971.91
2022-11-09T06:51:41.758Z,99981.72
2022-11-09T06:54:08.292Z,99990.88
2022-11-09T06:56:34.809Z,99991.72
2022-11-09T06:59:01.210Z,99991.75
2022-11-09T07:01:29.096Z,99997.97
2022-11-09T07:03:55.659Z,99994.22
2022-11-09T07:06:22.622Z,99993.19
2022-11-09T07:08:49.175Z,99988.81
2022-11-09T07:11:16.311Z,99990.47
2022-11-09T07:13:42.801Z,99998.16
2022-11-09T07:16:11.918Z,99996.09
2022-11-09T07:18:38.615Z,99994.84
2022-11-09T07:21:08.868Z,99999.63
2022-11-09T07:23:39.877Z,99999.19
2022-11-09T07:26:06.572Z,99999.41
2022-11-09T07:28:33.390Z,99999.59
2022-11-09T07:31:00.005Z,100004.38
2022-11-09T07:33:26.983Z,100003.78
2022-11-09T07:35:53.673Z,100000.44
2022-11-09T07:38:20.204Z,99996.28
2022-11-09T07:40:47.042Z,100011.84
2022-11-09T07:43:13.485Z,100005.00
2022-11-09T07:45:40.586Z,100012.47
2022-11-09T07:48:12.201Z,100015.41
2022-11-09T07:50:40.126Z,100019.13
2022-11-09T07:53:08.325Z,100020.16
2022-11-09T07:55:35.896Z,100020.34
2022-11-09T07:58:05.913Z,100025.75
2022-11-09T08:00:34.363Z,100029.50
2022-11-09T08:03:01.329Z,100029.50
2022-11-09T08:05:28.263Z,100028.47
2022-11-09T08:07:59.659Z,100031.81
2022-11-09T08:10:27.631Z,100039.50
2022-11-09T08:13:02.696Z,100037.00
2022-11-09T08:15:29.710Z,100044.72
2022-11-09T08:18:00.914Z,100039.50
2022-11-09T08:20:27.417Z,100037.44
2022-11-09T08:22:53.826Z,100034.13
2022-11-09T08:25:20.313Z,100042.47
2022-11-09T08:27:46.674Z,100044.56
2022-11-09T08:30:17.403Z,100048.31
2022-11-09T08:32:44.972Z,100045.84
2022-11-09T08:35:16.818Z,100047.72
2022-11-09T08:37:44.583Z,100053.31
2022-11-09T08:40:11.171Z,100053.53
2022-11-09T08:42:37.538Z,100055.63
2022-11-09T08:45:04.806Z,100052.28
2022-11-09T08:47:31.257Z,100055.19
2022-11-09T08:49:57.637Z,100057.06
2022-11-09T08:52:24.018Z,100061.44
2022-11-09T08:54:50.385Z,100062.25
2022-11-09T08:57:20.512Z,100066.84
2022-11-09T08:59:47.103Z,100069.75
2022-11-09T09:02:22.453Z,100062.44
2022-11-09T09:04:48.865Z,100059.91
2022-11-09T09:07:15.293Z,100064.50
2022-11-09T09:09:41.673Z,100066.16
2022-11-09T09:12:09.459Z,100067.78
2022-11-09T09:14:36.201Z,100064.25
2022-11-09T09:17:02.709Z,100062.38
2022-11-09T09:19:29.223Z,100066.09
2022-11-09T09:21:55.657Z,100063.34
2022-11-09T09:24:22.115Z,100063.53
2022-11-09T09:26:48.478Z,100061.66
2022-11-09T09:29:14.947Z,100070.59
2022-11-09T09:31:41.408Z,100077.84
2022-11-09T09:34:07.941Z,100074.25
2022-11-09T09:36:35.541Z,100066.31
2022-11-09T09:39:02.206Z,100080.03
2022-11-09T09:41:34.886Z,100073.75
2022-11-09T09:44:26.964Z,100080.19
2022-11-09T09:47:04.886Z,100073.91
2022-11-09T09:49:36.427Z,100082.22
2022-11-09T09:52:05.968Z,100077.78
2022-11-09T09:54:40.562Z,100085.28
2022-11-09T09:57:15.885Z,100083.56
2022-11-09T09:59:44.738Z,100084.75
2022-11-09T10:02:25.756Z,100093.13
2022-11-09T10:04:55.146Z,100084.16
2022-11-09T10:07:29.506Z,100088.91
2022-11-09T10:10:33.443Z,100086.22
2022-11-09T10:13:21.218Z,100080.56
2022-11-09T10:16:04.735Z,100085.56
2022-11-09T10:18:35.030Z,100088.84
2022-11-09T10:21:22.826Z,100087.59
2022-11-09T10:24:07.943Z,100083.00
2022-11-09T10:26:41.193Z,100086.31
2022-11-09T10:29:20.487Z,100072.31
2022-11-09T10:31:48.759Z,100080.47
2022-11-09T10:34:33.746Z,100080.84
2022-11-09T10:37:10.026Z,100076.84
2022-11-09T10:39:47.242Z,100081.63
2022-11-09T10:42:13.619Z,100088.88
2022-11-09T10:44:39.986Z,100077.72
2022-11-09T10:47:08.591Z,100082.19
2022-11-09T10:49:35.494Z,100075.19
2022-11-09T10:52:02.017Z,100071.72
2022-11-09T10:54:33.204Z,100076.66
2022-11-09T10:57:22.916Z,100072.59
2022-11-09T10:59:56.650Z,100080.47
2022-11-09T11:02:29.723Z,100084.16
2022-11-09T11:05:05.215Z,100072.34
2022-11-09T11:07:32.438Z,100080.31
2022-11-09T11:10:14.899Z,100076.88
2022-11-09T11:12:42.537Z,100084.00
2022-11-09T11:15:22.965Z,100080.19
2022-11-09T11:17:49.841Z,100092.34
2022-11-09T11:20:29.330Z,100089.88
2022-11-09T11:23:21.099Z,100087.84
2022-11-09T11:25:53.877Z,100078.72
2022-11-09T11:28:29.145Z,100091.53
2022-11-09T11:30:56.455Z,100082.63
2022-11-09T11:33:23.465Z,100078.47
2022-11-09T11:35:56.510Z,100075.19
2022-11-09T11:38:40.986Z,100079.72
2022-11-09T11:41:34.853Z,100070.75
2022-11-09T11:44:23.019Z,100080.63
2022-11-09T11:47:05.945Z,100083.91
2022-11-09T11:49:47.852Z,100083.69
2022-11-09T11:52:24.288Z,100085.75
2022-11-09T11:55:00.841Z,100080.88
2022-11-09T11:57:59.563Z,100092.16
2022-11-09T12:00:26.225Z,100085.44
2022-11-09T12:03:08.253Z,100090.19
2022-11-09T12:06:02.430Z,100080.97
2022-11-09T12:08:53.835Z,100087.03
2022-11-09T12:11:35.982Z,100078.63
2022-11-09T12:14:15.288Z,100085.13
2022-11-09T12:17:08.203Z,100086.56
2022-11-09T12:20:16.576Z,100078.56
2022-11-09T12:23:00.980Z,100085.19
2022-11-09T12:25:36.801Z,100085.78
2022-11-09T12:28:24.545Z,100080.94
2022-11-09T12:31:18.982Z,100093.25
2022-11-09T12:33:49.904Z,100081.72
2022-11-09T12:36:24.321Z,100080.41
2022-11-09T12:39:01.960Z,100087.28
2022-11-09T12:41:33.372Z,100083.03
2022-11-09T12:44:27.185Z,100082.09
2022-11-09T12:47:03.251Z,100087.69
2022-11-09T12:49:41.478Z,100094.34
2022-11-09T12:52:12.628Z,100081.69
2022-11-09T12:54:43.911Z,100089.03
2022-11-09T12:57:14.450Z,100080.88
2022-11-09T12:59:50.209Z,100085.47
2022-11-09T13:02:22.983Z,100099.91
2022-11-09T13:05:05.113Z,100099.31
2022-11-09T13:07:38.391Z,100097.53
2022-11-09T13:10:05.279Z,100090.50
2022-11-09T13:12:40.066Z,100097.91
2022-11-09T13:15:22.652Z,100108.28
2022-11-09T13:17:57.425Z,100103.16
2022-11-09T13:26:33.379Z,100105.50
2022-11-09T13:29:15.137Z,100101.59
2022-11-09T13:32:02.846Z,100107.69
2022-11-09T13:34:46.043Z,100121.13
2022-11-09T13:37:45.047Z,100111.97
2022-11-09T13:40:31.690Z,100122.47
2022-11-09T13:43:08.658Z,100115.81
2022-11-09T13:45:51.617Z,100126.06
2022-11-09T13:48:44.008Z,100126.53
2022-11-09T13:51:21.013Z,100114.47
2022-11-09T13:54:26.125Z,100121.75
2022-11-09T13:56:53.161Z,100130.34
2022-11-09T13:59:30.034Z,100129.72
2022-11-09T14:01:59.077Z,100122.66
2022-11-09T14:04:37.781Z,100115.56
2022-11-09T14:07:07.165Z,100121.22
2022-11-09T14:09:54.084Z,100120.59
2022-11-09T14:12:42.203Z,100124.84
2022-11-09T14:15:39.771Z,100123.59
2022-11-09T14:18:45.858Z,100129.47
2022-11-09T14:21:39.976Z,100128.25
2022-11-09T14:24:19.511Z,100137.91
2022-11-09T14:27:18.523Z,100140.00
2022-11-09T14:29:53.155Z,100145.06
2022-11-09T14:32:29.050Z,100140.91
2022-11-09T14:35:11.824Z,100146.97
2022-11-09T14:37:44.066Z,100143.06
2022-11-09T14:40:19.876Z,100147.25
2022-11-09T14:42:52.368Z,100156.06
2022-11-09T14:45:31.095Z,100164.03
2022-11-09T14:47:59.176Z,100170.72
2022-11-09T14:50:37.497Z,100165.72
2022-11-09T14:53:05.699Z,100172.66
2022-11-09T14:55:34.232Z,100179.13
2022-11-09T14:58:01.562Z,100169.53
2022-11-09T15:00:33.095Z,100173.28
2022-11-09T15:03:20.368Z,100184.56
2022-11-09T15:05:46.786Z,100175.81
2022-11-09T15:08:21.402Z,100180.41
2022-11-09T15:10:53.087Z,100193.34
2022-11-09T15:13:39.595Z,100191.91
2022-11-09T15:16:06.903Z,100204.22
2022-11-09T15:18:36.784Z,100207.16
2022-11-09T15:21:14.373Z,100211.13
2022-11-09T15:23:47.164Z,100208.88
2022-11-09T15:26:36.513Z,100213.88
2022-11-09T15:29:27.951Z,100221.59
2022-11-09T15:32:10.830Z,100216.81
2022-11-09T15:34:51.546Z,100226.44
2022-11-09T15:37:31.984Z,100219.78
2022-11-09T15:39:58.931Z,100216.88
2022-11-09T15:42:27.039Z,100225.44
2022-11-09T15:44:55.862Z,100236.91
2022-11-09T15:47:37.666Z,100235.44
2022-11-09T15:50:14.828Z,100237.13
2022-11-09T15:52:44.258Z,100238.63
2022-11-09T15:55:15.655Z,100241.53
2022-11-09T15:57:43.198Z,100249.47
2022-11-09T16:00:19.402Z,100241.53
2022-11-09T16:02:47.290Z,100248.44
2022-11-09T16:05:13.922Z,100246.16
2022-11-09T16:07:51.158Z,100255.31
2022-11-09T16:10:20.297Z,100255.09
2022-11-09T16:12:47.378Z,100262.81
2022-11-09T16:15:13.866Z,100274.50
2022-11-09T16:17:40.222Z,100270.72
2022-11-09T16:20:07.189Z,100274.25
2022-11-09T16:22:33.954Z,100280.28
2022-11-09T16:25:00.388Z,100289.06
2022-11-09T16:30:23.011Z,100293.63
2022-11-09T16:32:49.638Z,100293.22
2022-11-09T16:35:26.621Z,100294.47
2022-11-09T16:37:55.273Z,100301.31
2022-11-09T16:40:22.342Z,100308.19
2022-11-09T16:42:51.214Z,100313.16
2022-11-09T16:45:17.719Z,100322.94
2022-11-09T16:47:47.678Z,100320.66
2022-11-09T16:50:14.489Z,100319.78
2022-11-09T16:52:41.023Z,100318.72
2022-11-09T16:55:09.322Z,100313.50
2022-11-09T16:57:35.670Z,100325.13
2022-11-09T17:00:02.259Z,100333.22
2022-11-09T17:02:28.643Z,100334.22
2022-11-09T17:04:54.995Z,100334.19
2022-11-09T17:07:21.437Z,100336.84
2022-11-09T17:09:47.820Z,100336.81
2022-11-09T17:12:14.934Z,100334.06
2022-11-09T17:14:41.792Z,100341.09
2022-11-09T17:17:08.169Z,100329.41
2022-11-09T17:19:35.946Z,100338.09
2022-11-09T17:22:03.985Z,100340.75
2022-11-09T17:24:30.537Z,100335.94
2022-11-09T17:26:57.212Z,100353.78
2022-11-09T17:29:24.560Z,100367.88
2022-11-09T17:31:51.158Z,100366.63
2022-11-09T17:34:17.563Z,100384.22
2022-11-09T17:39:30.335Z,100387.16
2022-11-09T17:41:56.819Z,100390.41
2022-11-09T17:44:23.186Z,100394.34
2022-11-09T17:46:49.615Z,100397.44
2022-11-09T17:49:16.153Z,100401.16
2022-11-09T17:51:42.585Z,100402.19
2022-11-09T17:54:08.943Z,100404.91
2022-11-09T17:56:35.407Z,100402.19
2022-11-09T17:59:04.558Z,100406.38
2022-11-09T18:01:32.392Z,100405.53
2022-11-09T18:04:05.528Z,100408.88
2022-11-09T18:06:32.954Z,100415.97
2022-11-09T18:09:27.167Z,100413.91
2022-11-09T18:11:45.817Z,100407.72
2022-11-09T18:14:12.185Z,100425.81
2022-11-09T18:16:38.525Z,100418.91
2022-11-09T18:19:05.893Z,100420.13
2022-11-09T18:21:33.440Z,100430.13
2022-11-09T18:23:59.969Z,100418.66
2022-11-09T18:26:26.434Z,100428.81
2022-11-09T18:28:55.072Z,100422.75
2022-11-09T18:31:21.389Z,100432.94
2022-11-09T18:33:47.750Z,100438.34
2022-11-09T18:36:16.826Z,100438.72
2022-11-09T18:38:44.301Z,100448.03
2022-11-09T18:41:12.239Z,100451.94
2022-11-09T18:43:38.702Z,100462.13
2022-11-09T18:46:09.734Z,100458.78
2022-11-09T18:48:37.564Z,100467.28
2022-11-09T18:51:08.223Z,100470.34
2022-11-09T18:53:37.377Z,100474.91
2022-11-09T18:56:07.186Z,100493.81
2022-11-09T18:58:34.414Z,100477.59
2022-11-09T19:01:03.898Z,100489.25
2022-11-09T19:03:30.354Z,100494.47
2022-11-09T19:05:56.814Z,100489.88
2022-11-09T19:08:42.226Z,100496.97
2022-11-09T19:11:13.484Z,100503.88
2022-11-09T19:13:40.617Z,100508.41
2022-11-09T19:16:09.945Z,100516.16
2022-11-09T19:18:36.418Z,100516.78
2022-11-09T19:21:03.373Z,100521.81
2022-11-09T19:23:34.310Z,100529.53
2022-11-09T19:26:01.954Z,100527.09
2022-11-09T19:28:28.340Z,100528.38
2022-11-09T19:30:54.663Z,100541.50
2022-11-09T19:33:21.007Z,100535.75
2022-11-09T19:36:15.165Z,100543.06
2022-11-09T19:38:38.042Z,100541.22
2022-11-09T19:41:04.485Z,100550.78
2022-11-09T19:43:30.802Z,100546.22
2022-11-09T19:45:57.156Z,100554.16
2022-11-09T19:48:23.830Z,100571.03
2022-11-09T19:50:52.055Z,100569.97
2022-11-09T19:53:19.137Z,100569.97
2022-11-09T19:55:45.733Z,100579.75
2022-11-09T19:58:12.202Z,100579.13
2022-11-09T20:00:38.590Z,100582.84
2022-11-09T20:03:05.091Z,100582.19
2022-11-09T20:05:34.719Z,100583.22
2022-11-09T20:08:04.937Z,100596.09
2022-11-09T20:10:31.586Z,100601.88
2022-11-09T20:12:58.509Z,100602.25
2022-11-09T20:15:24.833Z,100608.03
2022-11-09T20:17:51.202Z,100619.22
2022-11-09T20:20:17.682Z,100622.50
2022-11-09T20:22:44.106Z,100626.59
2022-11-09T20:25:10.607Z,100626.69
2022-11-09T20:27:37.103Z,100632.00
2022-11-09T20:30:04.398Z,100631.25
2022-11-09T20:32:31.039Z,100639.28
2022-11-09T20:34:57.383Z,100645.59
2022-11-09T20:37:23.729Z,100652.91
2022-11-09T20:39:50.083Z,100641.16
2022-11-09T20:42:16.404Z,100649.16
2022-11-09T20:44:42.739Z,100659.00
2022-11-09T20:47:09.604Z,100655.19
2022-11-09T20:49:35.927Z,100655.91
2022-11-09T20:52:02.327Z,100663.69
2022-11-09T20:54:28.660Z,100667.13
2022-11-09T20:56:55.265Z,100673.06
2022-11-09T20:59:21.590Z,100674.47
2022-11-09T21:01:48.503Z,100677.69
2022-11-09T21:04:15.026Z,100677.22
2022-11-09T21:06:41.476Z,100683.13
2022-11-09T21:09:08.021Z,100679.94
2022-11-09T21:11:57.286Z,100684.03
2022-11-09T21:14:23.890Z,100694.34
2022-11-09T21:16:50.257Z,100703.78
2022-11-09T21:19:16.578Z,100697.06
2022-11-09T21:21:42.934Z,100703.84
2022-11-09T21:24:42.022Z,100706.91
2022-11-09T21:27:47.690Z,100714.31
2022-11-09T21:30:15.007Z,100707.59
2022-11-09T21:32:41.346Z,100712.50
2022-11-09T21:35:08.233Z,100714.53
2022-11-09T21:37:34.815Z,100710.31
2022-11-09T21:40:01.163Z,100726.69
2022-11-09T21:42:27.742Z,100723.31
2022-11-09T21:44:54.122Z,100714.56
2022-11-09T21:47:20.476Z,100723.66
2022-11-09T21:49:46.864Z,100723.66
2022-11-09T21:52:13.224Z,100721.13
2022-11-09T21:54:40.496Z,100719.63
2022-11-09T21:57:07.813Z,100726.88
2022-11-09T21:59:34.162Z,100736.97
2022-11-09T22:02:00.535Z,100731.78
2022-11-09T22:04:26.939Z,100743.56
2022-11-09T22:06:53.357Z,100749.13
2022-11-09T22:09:19.809Z,100749.28
2022-11-09T22:12:05.070Z,100752.13
2022-11-09T22:14:50.718Z,100750.47
2022-11-09T22:17:17.036Z,100760.22
2022-11-09T22:20:02.585Z,100764.94
2022-11-09T22:22:30.428Z,100768.63
2022-11-09T22:24:57.109Z,100766.13
2022-11-09T22:27:23.776Z,100770.69
2022-11-09T22:29:50.286Z,100773.38
2022-11-09T22:32:16.686Z,100771.69
2022-11-09T22:34:44.641Z,100768.31
2022-11-09T22:37:11.099Z,100783.84
2022-11-09T22:39:39.031Z,100776.94
2022-11-09T22:42:07.454Z,100776.25
2022-11-09T22:44:33.774Z,100779.09
2022-11-09T22:47:00.267Z,100784.00
2022-11-09T22:49:26.715Z,100786.03
2022-11-09T22:51:53.426Z,100794.44
2022-11-09T22:54:23.002Z,100794.63
2022-11-09T22:56:49.332Z,100800.34
2022-11-09T22:59:15.765Z,100809.59
2022-11-09T23:01:42.265Z,100816.16
2022-11-09T23:04:09.829Z,100822.56
2022-11-09T23:06:36.235Z,100819.03
2022-11-09T23:09:02.722Z,100830.81
2022-11-09T23:11:29.059Z,100834.53
2022-11-09T23:13:55.855Z,100835.34
2022-11-09T23:16:24.663Z,100840.75
2022-11-09T23:18:54.540Z,100840.94
2022-11-09T23:21:28.261Z,100849.00
2022-11-09T23:23:57.383Z,100852.00
2022-11-09T23:26:24.667Z,100852.19
2022-11-09T23:28:51.087Z,100852.53
2022-11-09T23:31:19.766Z,100850.00
2022-11-09T23:33:54.384Z,100854.53
2022-11-09T23:36:25.867Z,100862.78
2022-11-09T23:38:52.292Z,100858.56
2022-11-09T23:41:19.111Z,100865.81
2022-11-09T23:43:49.296Z,100875.06
2022-11-09T23:46:17.170Z,100878.78
2022-11-09T23:48:43.722Z,100885.13
2022-11-09T23:51:10.253Z,100888.84
2022-11-09T23:53:36.973Z,100886.31
2022-11-09T23:56:09.247Z,100896.25
2022-11-09T23:58:36.421Z,100897.41
